createdAt,value
2022-10-02T00:00:17.424Z,95.86
2022-10-02T00:01:20.315Z,95.83
2022-10-02T00:02:23.460Z,95.86
2022-10-02T00:03:58.201Z,95.90
2022-10-02T00:05:01.223Z,96.02
2022-10-02T00:06:03.949Z,95.97
2022-10-02T00:07:38.540Z,96.02
2022-10-02T00:08:41.369Z,96.07
2022-10-02T00:09:44.159Z,95.99
2022-10-02T00:11:18.728Z,95.85
2022-10-02T00:12:21.483Z,95.85
2022-10-02T00:13:24.346Z,95.73
2022-10-02T00:14:58.914Z,95.69
2022-10-02T00:16:01.625Z,95.57
2022-10-02T00:17:04.973Z,95.53
2022-10-02T00:18:39.488Z,95.48
2022-10-02T00:19:42.436Z,95.39
2022-10-02T00:20:45.190Z,95.35
2022-10-02T00:22:19.554Z,95.34
2022-10-02T00:23:22.239Z,95.31
2022-10-02T00:24:24.926Z,95.25
2022-10-02T00:25:59.626Z,95.20
2022-10-02T00:27:02.355Z,95.14
2022-10-02T00:28:05.298Z,95.19
2022-10-02T00:29:40.272Z,95.04
2022-10-02T00:30:43.186Z,95.09
2022-10-02T00:31:46.667Z,95.02
2022-10-02T00:33:21.877Z,95.07
2022-10-02T00:34:24.568Z,95.07
2022-10-02T00:35:27.315Z,95.17
2022-10-02T00:37:01.834Z,95.25
2022-10-02T00:38:04.566Z,95.42
2022-10-02T00:39:07.282Z,95.48
2022-10-02T00:40:41.690Z,95.56
2022-10-02T00:41:44.634Z,95.61
2022-10-02T00:42:47.360Z,95.66
2022-10-02T00:44:22.113Z,95.78
2022-10-02T00:45:25.041Z,95.89
2022-10-02T00:46:28.477Z,95.91
2022-10-02T00:48:03.708Z,96.01
2022-10-02T00:49:06.535Z,96.26
2022-10-02T00:50:09.500Z,96.21
2022-10-02T00:51:43.821Z,96.41
2022-10-02T00:52:46.568Z,96.37
2022-10-02T00:53:49.510Z,96.28
2022-10-02T00:55:23.980Z,96.15
2022-10-02T00:56:26.992Z,95.93
2022-10-02T00:57:30.517Z,95.45
2022-10-02T00:59:05.088Z,94.74
2022-10-02T01:00:18.145Z,94.34
2022-10-02T01:01:21.264Z,94.39
2022-10-02T01:02:24.564Z,94.20
2022-10-02T01:03:59.197Z,94.14
2022-10-02T01:05:02.086Z,94.15
2022-10-02T01:06:04.916Z,94.17
2022-10-02T01:07:39.402Z,94.22
2022-10-02T01:08:42.237Z,94.25
2022-10-02T01:09:45.113Z,94.25
2022-10-02T01:11:19.780Z,94.25
2022-10-02T01:12:22.691Z,94.31
2022-10-02T01:13:25.368Z,94.32
2022-10-02T01:14:59.818Z,94.19
2022-10-02T01:16:02.696Z,94.12
2022-10-02T01:17:05.824Z,94.14
2022-10-02T01:18:40.347Z,94.20
2022-10-02T01:19:43.041Z,94.22
2022-10-02T01:20:45.879Z,94.23
2022-10-02T01:22:20.433Z,94.47
2022-10-02T01:23:23.129Z,94.55
2022-10-02T01:24:25.799Z,94.64
2022-10-02T01:26:00.422Z,94.74
2022-10-02T01:27:03.198Z,94.68
2022-10-02T01:28:06.046Z,94.82
2022-10-02T01:29:41.043Z,94.64
2022-10-02T01:30:43.977Z,94.66
2022-10-02T01:31:46.795Z,94.62
2022-10-02T01:33:21.597Z,94.43
2022-10-02T01:34:24.605Z,94.40
2022-10-02T01:35:27.307Z,94.39
2022-10-02T01:37:01.696Z,94.44
2022-10-02T01:38:04.459Z,94.41
2022-10-02T01:39:07.126Z,94.45
2022-10-02T01:40:41.655Z,94.43
2022-10-02T01:41:44.355Z,94.47
2022-10-02T01:42:47.151Z,94.48
2022-10-02T01:44:21.558Z,94.49
2022-10-02T01:45:24.390Z,94.49
2022-10-02T01:46:27.655Z,94.55
2022-10-02T01:48:02.969Z,94.56
2022-10-02T01:49:05.654Z,94.61
2022-10-02T01:50:08.355Z,94.70
2022-10-02T01:51:42.845Z,94.80
2022-10-02T01:52:45.534Z,94.77
2022-10-02T01:53:48.286Z,94.90
2022-10-02T01:55:22.802Z,95.04
2022-10-02T01:56:25.437Z,95.00
2022-10-02T01:57:28.398Z,95.10
2022-10-02T01:59:02.811Z,95.12
2022-10-02T02:00:17.683Z,95.18
2022-10-02T02:01:20.598Z,95.11
2022-10-02T02:02:23.897Z,95.05
2022-10-02T02:03:58.949Z,94.92
2022-10-02T02:05:01.884Z,94.97
2022-10-02T02:06:04.586Z,94.96
2022-10-02T02:07:39.190Z,95.06
2022-10-02T02:08:42.227Z,94.92
2022-10-02T02:09:48.165Z,94.99
2022-10-02T02:11:22.820Z,94.98
2022-10-02T02:12:25.801Z,95.05
2022-10-02T02:13:28.568Z,95.07
2022-10-02T02:15:02.895Z,95.11
2022-10-02T02:16:05.749Z,95.22
2022-10-02T02:17:08.882Z,95.24
2022-10-02T02:18:43.362Z,95.21
2022-10-02T02:19:46.251Z,95.21
2022-10-02T02:20:48.959Z,95.37
2022-10-02T02:22:23.400Z,95.42
2022-10-02T02:23:26.204Z,95.43
2022-10-02T02:24:28.967Z,95.46
2022-10-02T02:26:03.393Z,95.41
2022-10-02T02:27:06.086Z,95.47
2022-10-02T02:28:09.161Z,95.56
2022-10-02T02:29:44.118Z,95.43
2022-10-02T02:30:46.857Z,95.47
2022-10-02T02:31:50.104Z,95.44
2022-10-02T02:33:24.917Z,95.47
2022-10-02T02:34:27.691Z,95.49
2022-10-02T02:35:30.381Z,95.62
2022-10-02T02:37:05.105Z,95.54
2022-10-02T02:38:07.850Z,95.49
2022-10-02T02:39:10.729Z,95.54
2022-10-02T02:40:45.295Z,95.56
2022-10-02T02:41:48.042Z,95.60
2022-10-02T02:42:50.815Z,95.72
2022-10-02T02:44:25.282Z,95.78
2022-10-02T02:45:28.291Z,95.79
2022-10-02T02:46:31.663Z,95.90
2022-10-02T02:48:06.623Z,95.96
2022-10-02T02:49:09.285Z,96.03
2022-10-02T02:50:12.076Z,96.14
2022-10-02T02:51:46.723Z,96.05
2022-10-02T02:52:49.474Z,96.14
2022-10-02T02:53:52.354Z,96.14
2022-10-02T02:55:26.895Z,96.20
2022-10-02T02:56:36.804Z,96.43
2022-10-02T02:57:39.854Z,96.33
2022-10-02T02:59:14.252Z,96.32
2022-10-02T03:00:18.219Z,96.31
2022-10-02T03:01:21.266Z,96.33
2022-10-02T03:02:24.517Z,96.45
2022-10-02T03:03:59.471Z,96.70
2022-10-02T03:05:02.153Z,96.60
2022-10-02T03:06:05.002Z,96.58
2022-10-02T03:07:39.718Z,96.67
2022-10-02T03:08:42.424Z,96.60
2022-10-02T03:09:45.276Z,96.61
2022-10-02T03:11:19.933Z,96.64
2022-10-02T03:12:22.628Z,96.72
2022-10-02T03:13:25.472Z,96.71
2022-10-02T03:14:59.916Z,96.85
2022-10-02T03:16:02.753Z,96.97
2022-10-02T03:17:05.702Z,96.88
2022-10-02T03:18:40.144Z,96.89
2022-10-02T03:19:42.811Z,97.01
2022-10-02T03:20:45.355Z,97.21
2022-10-02T03:22:19.932Z,97.20
2022-10-02T03:23:22.813Z,97.27
2022-10-02T03:24:25.436Z,97.21
2022-10-02T03:26:00.021Z,97.40
2022-10-02T03:27:02.863Z,97.30
2022-10-02T03:28:05.719Z,97.38
2022-10-02T03:30:14.371Z,97.59
2022-10-02T03:31:17.440Z,97.54
2022-10-02T03:32:20.596Z,97.58
2022-10-02T03:33:55.120Z,97.58
2022-10-02T03:34:57.836Z,97.53
2022-10-02T03:36:00.479Z,97.48
2022-10-02T03:37:35.127Z,97.47
2022-10-02T03:38:38.072Z,97.58
2022-10-02T03:40:11.999Z,97.53
2022-10-02T03:41:46.684Z,97.54
2022-10-02T03:42:49.374Z,97.46
2022-10-02T03:43:52.057Z,97.44
2022-10-02T03:45:55.343Z,97.33
2022-10-02T03:46:58.516Z,97.35
2022-10-02T03:48:01.217Z,97.28
2022-10-02T03:49:35.589Z,97.19
2022-10-02T03:50:42.195Z,97.16
2022-10-02T03:51:44.870Z,97.15
2022-10-02T03:53:19.520Z,97.17
2022-10-02T03:54:22.270Z,97.14
2022-10-02T03:55:24.904Z,97.10
2022-10-02T03:56:59.589Z,97.13
2022-10-02T03:58:02.530Z,97.14
2022-10-02T03:59:05.225Z,97.07
2022-10-02T04:00:17.871Z,97.10
2022-10-02T04:01:20.673Z,97.11
2022-10-02T04:02:29.515Z,97.18
2022-10-02T04:04:04.193Z,97.16
2022-10-02T04:05:47.357Z,97.16
2022-10-02T04:06:50.401Z,97.24
2022-10-02T04:07:58.564Z,97.20
2022-10-02T04:09:33.345Z,97.21
2022-10-02T04:10:35.954Z,97.19
2022-10-02T04:11:38.821Z,97.20
2022-10-02T04:13:13.545Z,97.30
2022-10-02T04:14:16.439Z,97.27
2022-10-02T04:15:19.406Z,97.25
2022-10-02T04:16:54.609Z,97.32
2022-10-02T04:18:03.856Z,97.45
2022-10-02T04:19:06.666Z,97.40
2022-10-02T04:20:41.578Z,97.55
2022-10-02T04:21:44.495Z,97.56
2022-10-02T04:22:47.321Z,97.66
2022-10-02T04:24:22.298Z,97.66
2022-10-02T04:25:25.044Z,97.57
2022-10-02T04:26:28.157Z,97.55
2022-10-02T04:28:03.737Z,97.53
2022-10-02T04:29:07.111Z,97.69
2022-10-02T04:30:09.734Z,97.77
2022-10-02T04:31:44.766Z,97.67
2022-10-02T04:32:47.804Z,97.56
2022-10-02T04:33:50.661Z,97.65
2022-10-02T04:35:25.435Z,97.55
2022-10-02T04:36:28.312Z,97.57
2022-10-02T04:37:31.349Z,97.64
2022-10-02T04:39:06.151Z,97.86
2022-10-02T04:40:08.818Z,97.96
2022-10-02T04:41:11.720Z,97.97
2022-10-02T04:42:46.268Z,98.01
2022-10-02T04:43:48.947Z,98.08
2022-10-02T04:44:51.994Z,98.03
2022-10-02T04:46:27.402Z,97.95
2022-10-02T04:47:31.037Z,97.97
2022-10-02T04:48:33.940Z,98.06
2022-10-02T04:50:08.744Z,97.96
2022-10-02T04:51:11.413Z,97.90
2022-10-02T04:52:14.247Z,97.78
2022-10-02T04:53:48.993Z,97.87
2022-10-02T04:54:51.893Z,97.91
2022-10-02T04:55:54.853Z,98.06
2022-10-02T04:57:30.137Z,97.91
2022-10-02T04:58:32.914Z,97.86
2022-10-02T04:59:36.098Z,97.79
2022-10-02T05:00:17.969Z,97.79
2022-10-02T05:01:21.501Z,97.72
2022-10-02T05:02:24.695Z,97.65
2022-10-02T05:04:03.753Z,97.65
2022-10-02T05:05:06.902Z,97.66
2022-10-02T05:06:09.655Z,97.71
2022-10-02T05:07:44.453Z,97.70
2022-10-02T05:08:47.255Z,97.68
2022-10-02T05:09:50.209Z,97.62
2022-10-02T05:11:24.854Z,97.77
2022-10-02T05:12:27.658Z,97.80
2022-10-02T05:13:30.609Z,97.83
2022-10-02T05:15:05.223Z,97.97
2022-10-02T05:16:08.314Z,97.97
2022-10-02T05:17:11.800Z,97.99
2022-10-02T05:18:46.368Z,97.96
2022-10-02T05:19:49.253Z,97.90
2022-10-02T05:20:51.963Z,97.95
2022-10-02T05:22:26.607Z,98.05
2022-10-02T05:23:29.548Z,97.99
2022-10-02T05:24:32.341Z,98.06
2022-10-02T05:26:09.657Z,98.11
2022-10-02T05:27:16.694Z,98.11
2022-10-02T05:28:19.763Z,98.22
2022-10-02T05:29:54.648Z,98.25
2022-10-02T05:30:57.505Z,98.23
2022-10-02T05:32:00.847Z,98.17
2022-10-02T05:33:35.697Z,98.13
2022-10-02T05:34:45.278Z,98.18
2022-10-02T05:35:48.288Z,98.28
2022-10-02T05:37:23.721Z,98.21
2022-10-02T05:38:26.494Z,98.32
2022-10-02T05:39:29.430Z,98.33
2022-10-02T05:41:04.188Z,98.36
2022-10-02T05:42:07.012Z,98.39
2022-10-02T05:43:09.847Z,98.37
2022-10-02T05:44:44.779Z,98.33
2022-10-02T05:45:47.522Z,98.36
2022-10-02T05:46:50.558Z,98.38
2022-10-02T05:48:25.209Z,98.30
2022-10-02T05:49:27.998Z,98.35
2022-10-02T05:50:30.984Z,98.37
2022-10-02T05:52:05.880Z,98.46
2022-10-02T05:53:08.546Z,98.49
2022-10-02T05:54:11.258Z,98.54
2022-10-02T05:55:45.720Z,98.53
2022-10-02T05:56:48.576Z,98.52
2022-10-02T05:57:51.259Z,98.51
2022-10-02T05:59:25.922Z,98.51
2022-10-02T06:00:17.524Z,98.60
2022-10-02T06:01:20.670Z,98.49
2022-10-02T06:02:24.195Z,98.51
2022-10-02T06:04:03.071Z,98.45
2022-10-02T06:05:05.996Z,98.52
2022-10-02T06:06:08.859Z,98.51
2022-10-02T06:07:43.483Z,98.68
2022-10-02T06:08:46.234Z,98.72
2022-10-02T06:09:49.148Z,98.61
2022-10-02T06:11:23.787Z,98.58
2022-10-02T06:12:26.722Z,98.62
2022-10-02T06:13:29.739Z,98.66
2022-10-02T06:15:04.372Z,98.68
2022-10-02T06:16:07.431Z,98.67
2022-10-02T06:17:10.727Z,98.71
2022-10-02T06:18:45.341Z,98.74
2022-10-02T06:19:48.098Z,98.67
2022-10-02T06:20:55.283Z,98.67
2022-10-02T06:22:29.823Z,98.61
2022-10-02T06:23:32.485Z,98.64
2022-10-02T06:24:35.351Z,98.64
2022-10-02T06:26:10.034Z,98.60
2022-10-02T06:27:13.242Z,98.60
2022-10-02T06:28:16.165Z,98.57
2022-10-02T06:29:57.911Z,98.58
2022-10-02T06:31:00.666Z,98.51
2022-10-02T06:32:03.988Z,98.52
2022-10-02T06:33:38.748Z,98.42
2022-10-02T06:34:44.666Z,98.41
2022-10-02T06:35:50.817Z,98.31
2022-10-02T06:37:26.141Z,98.31
2022-10-02T06:38:29.089Z,98.26
2022-10-02T06:39:31.824Z,98.22
2022-10-02T06:41:06.273Z,98.16
2022-10-02T06:42:09.109Z,98.09
2022-10-02T06:43:12.081Z,98.11
2022-10-02T06:44:46.963Z,98.08
2022-10-02T06:45:49.909Z,98.12
2022-10-02T06:46:57.028Z,98.11
2022-10-02T06:48:32.112Z,98.07
2022-10-02T06:49:34.829Z,98.07
2022-10-02T06:50:37.667Z,98.06
2022-10-02T06:52:12.202Z,98.15
2022-10-02T06:53:18.883Z,98.11
2022-10-02T06:54:21.694Z,98.13
2022-10-02T06:55:56.457Z,98.18
2022-10-02T06:56:59.393Z,98.28
2022-10-02T06:58:02.156Z,98.29
2022-10-02T06:59:37.105Z,98.25
2022-10-02T07:00:18.054Z,98.25
2022-10-02T07:01:21.515Z,98.22
2022-10-02T07:02:24.575Z,98.34
2022-10-02T07:03:59.168Z,98.40
2022-10-02T07:05:01.986Z,98.35
2022-10-02T07:06:04.856Z,98.34
2022-10-02T07:07:39.393Z,98.41
2022-10-02T07:08:42.092Z,98.48
2022-10-02T07:09:45.011Z,98.41
2022-10-02T07:11:19.506Z,98.53
2022-10-02T07:12:22.473Z,98.57
2022-10-02T07:13:25.218Z,98.58
2022-10-02T07:14:59.659Z,98.56
2022-10-02T07:16:02.595Z,98.53
2022-10-02T07:17:05.780Z,98.45
2022-10-02T07:18:45.656Z,98.44
2022-10-02T07:19:48.514Z,98.39
2022-10-02T07:20:51.412Z,98.38
2022-10-02T07:22:49.321Z,98.30
2022-10-02T07:23:55.194Z,98.35
2022-10-02T07:25:00.197Z,98.27
2022-10-02T07:26:35.281Z,98.23
2022-10-02T07:27:38.281Z,98.18
2022-10-02T07:28:41.535Z,98.19
2022-10-02T07:30:16.204Z,98.21
2022-10-02T07:31:19.283Z,98.19
2022-10-02T07:32:22.752Z,98.15
2022-10-02T07:33:57.292Z,98.16
2022-10-02T07:35:00.022Z,98.03
2022-10-02T07:36:02.671Z,97.93
2022-10-02T07:37:37.199Z,98.06
2022-10-02T07:38:39.949Z,97.93
2022-10-02T07:39:42.742Z,97.87
2022-10-02T07:41:17.379Z,97.83
2022-10-02T07:42:20.042Z,97.83
2022-10-02T07:43:22.799Z,97.77
2022-10-02T07:44:57.309Z,97.75
2022-10-02T07:46:00.436Z,97.65
2022-10-02T07:47:07.003Z,97.51
2022-10-02T07:48:41.747Z,97.58
2022-10-02T07:49:44.767Z,97.44
2022-10-02T07:50:47.507Z,97.47
2022-10-02T07:52:22.074Z,97.42
2022-10-02T07:53:24.874Z,97.49
2022-10-02T07:54:27.854Z,97.43
2022-10-02T07:56:02.517Z,97.54
2022-10-02T07:57:09.742Z,97.60
2022-10-02T07:58:12.934Z,97.59
2022-10-02T07:59:47.674Z,97.52
2022-10-02T08:00:17.798Z,97.53
2022-10-02T08:01:20.717Z,97.66
2022-10-02T08:02:23.892Z,97.51
2022-10-02T08:03:59.522Z,97.20
2022-10-02T08:05:02.198Z,97.13
2022-10-02T08:06:04.953Z,97.07
2022-10-02T08:07:39.754Z,96.97
2022-10-02T08:08:42.772Z,96.93
2022-10-02T08:09:45.828Z,97.06
2022-10-02T08:11:20.542Z,96.98
2022-10-02T08:12:29.617Z,96.87
2022-10-02T08:13:32.682Z,96.62
2022-10-02T08:15:07.288Z,96.28
2022-10-02T08:16:10.650Z,96.38
2022-10-02T08:17:14.320Z,96.33
2022-10-02T08:19:21.605Z,96.32
2022-10-02T08:20:28.554Z,96.06
2022-10-02T08:21:32.382Z,96.03
2022-10-02T08:23:07.274Z,96.02
2022-10-02T08:24:10.162Z,95.76
2022-10-02T08:25:13.049Z,95.92
2022-10-02T08:26:48.402Z,96.21
2022-10-02T08:27:51.426Z,96.14
2022-10-02T08:28:54.692Z,95.58
2022-10-02T08:30:29.495Z,95.55
2022-10-02T08:31:32.758Z,95.39
2022-10-02T08:32:40.581Z,95.16
2022-10-02T08:34:15.306Z,94.72
2022-10-02T08:35:18.289Z,94.83
2022-10-02T08:36:21.217Z,94.57
2022-10-02T08:37:56.834Z,94.29
2022-10-02T08:39:00.673Z,94.52
2022-10-02T08:40:03.736Z,94.67
2022-10-02T08:41:38.393Z,94.82
2022-10-02T08:42:41.152Z,94.73
2022-10-02T08:43:43.908Z,94.54
2022-10-02T08:45:22.413Z,93.82
2022-10-02T08:46:25.740Z,93.84
2022-10-02T08:47:28.897Z,93.89
2022-10-02T08:49:03.501Z,93.70
2022-10-02T08:50:06.417Z,92.62
2022-10-02T08:51:09.213Z,92.72
2022-10-02T08:52:43.824Z,92.62
2022-10-02T08:53:46.585Z,92.06
2022-10-02T08:54:49.294Z,92.36
2022-10-02T08:56:26.110Z,92.58
2022-10-02T08:57:29.599Z,92.52
2022-10-02T08:58:32.414Z,91.99
2022-10-02T09:00:17.589Z,91.40
2022-10-02T09:01:20.752Z,91.56
2022-10-02T09:02:24.037Z,91.30
2022-10-02T09:03:59.045Z,91.38
2022-10-02T09:05:01.994Z,90.43
2022-10-02T09:06:04.833Z,90.16
2022-10-02T09:07:39.473Z,91.12
2022-10-02T09:08:42.394Z,91.12
2022-10-02T09:09:45.285Z,90.59
2022-10-02T09:11:20.007Z,91.03
2022-10-02T09:12:23.009Z,90.16
2022-10-02T09:13:25.832Z,90.47
2022-10-02T09:15:04.597Z,90.18
2022-10-02T09:16:07.871Z,90.24
2022-10-02T09:17:11.028Z,90.60
2022-10-02T09:18:45.479Z,90.78
2022-10-02T09:19:48.320Z,89.90
2022-10-02T09:20:52.488Z,90.22
2022-10-02T09:22:32.719Z,90.56
2022-10-02T09:23:35.627Z,89.09
2022-10-02T09:24:38.641Z,89.07
2022-10-02T09:26:13.518Z,89.73
2022-10-02T09:27:16.817Z,88.49
2022-10-02T09:28:19.905Z,87.70
2022-10-02T09:29:54.971Z,87.53
2022-10-02T09:30:57.896Z,87.70
2022-10-02T09:32:01.075Z,87.40
2022-10-02T09:33:35.819Z,87.00
2022-10-02T09:34:38.949Z,86.95
2022-10-02T09:35:41.982Z,86.93
2022-10-02T09:37:17.058Z,86.99
2022-10-02T09:38:19.972Z,86.77
2022-10-02T09:39:27.333Z,86.99
2022-10-02T09:41:02.224Z,87.58
2022-10-02T09:42:05.260Z,86.67
2022-10-02T09:43:08.265Z,86.27
2022-10-02T09:44:43.074Z,85.99
2022-10-02T09:45:50.930Z,85.74
2022-10-02T09:46:54.200Z,86.13
2022-10-02T09:48:28.920Z,86.60
2022-10-02T09:49:31.800Z,85.45
2022-10-02T09:50:34.741Z,84.33
2022-10-02T09:52:09.729Z,84.72
2022-10-02T09:53:12.720Z,84.75
2022-10-02T09:54:15.642Z,83.79
2022-10-02T09:55:50.577Z,83.62
2022-10-02T09:56:53.443Z,83.62
2022-10-02T09:57:56.323Z,83.17
2022-10-02T09:59:30.994Z,83.65
2022-10-02T10:00:18.208Z,83.65
2022-10-02T10:01:21.403Z,83.76
2022-10-02T10:02:30.494Z,83.58
2022-10-02T10:04:05.445Z,84.67
2022-10-02T10:05:34.576Z,83.75
2022-10-02T10:06:37.900Z,83.92
2022-10-02T10:08:13.094Z,82.79
2022-10-02T10:09:15.894Z,83.48
2022-10-02T10:10:18.800Z,82.57
2022-10-02T10:11:53.706Z,81.78
2022-10-02T10:12:56.678Z,81.59
2022-10-02T10:13:59.587Z,82.13
2022-10-02T10:15:34.290Z,82.60
2022-10-02T10:16:37.287Z,80.84
2022-10-02T10:17:40.185Z,79.72
2022-10-02T10:19:14.932Z,81.14
2022-10-02T10:20:17.882Z,79.62
2022-10-02T10:21:20.639Z,80.53
2022-10-02T10:22:59.881Z,82.38
2022-10-02T10:24:02.873Z,82.91
2022-10-02T10:25:05.567Z,83.13
2022-10-02T10:26:40.155Z,82.62
2022-10-02T10:27:47.968Z,81.12
2022-10-02T10:28:52.576Z,81.36
2022-10-02T10:30:27.342Z,80.74
2022-10-02T10:31:30.548Z,79.42
2022-10-02T10:32:34.199Z,80.83
2022-10-02T10:34:09.044Z,80.95
2022-10-02T10:35:11.852Z,81.21
2022-10-02T10:36:14.787Z,79.45
2022-10-02T10:37:49.528Z,79.36
2022-10-02T10:38:52.366Z,78.96
2022-10-02T10:39:55.331Z,78.23
2022-10-02T10:41:30.051Z,79.08
2022-10-02T10:42:49.884Z,79.26
2022-10-02T10:44:08.862Z,79.56
2022-10-02T10:45:44.044Z,80.16
2022-10-02T10:46:47.419Z,80.31
2022-10-02T10:47:50.250Z,80.06
2022-10-02T10:49:30.030Z,79.06
2022-10-02T10:50:32.917Z,79.69
2022-10-02T10:51:36.593Z,78.82
2022-10-02T10:53:11.245Z,78.53
2022-10-02T10:54:14.045Z,79.81
2022-10-02T10:55:16.870Z,80.16
2022-10-02T10:56:51.614Z,79.26
2022-10-02T10:57:54.407Z,79.00
2022-10-02T10:58:57.196Z,78.89
2022-10-02T11:00:17.551Z,79.27
2022-10-02T11:01:20.672Z,79.45
2022-10-02T11:02:24.375Z,79.39
2022-10-02T11:03:59.703Z,79.67
2022-10-02T11:05:02.454Z,79.89
2022-10-02T11:06:05.440Z,80.24
2022-10-02T11:07:40.203Z,80.10
2022-10-02T11:08:43.015Z,78.38
2022-10-02T11:09:45.957Z,78.00
2022-10-02T11:11:20.805Z,79.73
2022-10-02T11:12:24.597Z,79.78
2022-10-02T11:13:27.527Z,80.25
2022-10-02T11:15:02.201Z,79.81
2022-10-02T11:16:05.050Z,79.80
2022-10-02T11:17:08.344Z,80.34
2022-10-02T11:18:43.104Z,80.25
2022-10-02T11:19:46.051Z,80.06
2022-10-02T11:20:49.277Z,80.20
2022-10-02T11:22:25.499Z,80.46
2022-10-02T11:23:28.416Z,80.00
2022-10-02T11:24:31.234Z,80.35
2022-10-02T11:26:05.991Z,79.50
2022-10-02T11:27:08.912Z,79.91
2022-10-02T11:28:12.039Z,79.97
2022-10-02T11:29:46.889Z,78.84
2022-10-02T11:30:49.651Z,79.23
2022-10-02T11:31:53.096Z,79.59
2022-10-02T11:33:28.150Z,79.42
2022-10-02T11:34:31.069Z,78.75
2022-10-02T11:35:33.827Z,77.82
2022-10-02T11:37:08.613Z,77.08
2022-10-02T11:38:11.440Z,76.00
2022-10-02T11:39:14.271Z,77.27
2022-10-02T11:40:48.856Z,77.37
2022-10-02T11:41:52.088Z,77.46
2022-10-02T11:42:54.940Z,76.96
2022-10-02T11:44:35.761Z,75.97
2022-10-02T11:45:38.805Z,76.86
2022-10-02T11:46:41.949Z,77.96
2022-10-02T11:48:16.513Z,78.74
2022-10-02T11:49:19.339Z,76.23
2022-10-02T11:50:22.135Z,76.29
2022-10-02T11:51:56.694Z,77.82
2022-10-02T11:52:59.532Z,78.16
2022-10-02T11:54:02.439Z,77.52
2022-10-02T11:55:37.157Z,77.95
2022-10-02T11:56:40.151Z,77.72
2022-10-02T11:57:43.093Z,76.33
2022-10-02T11:59:17.749Z,75.89
2022-10-02T12:00:18.318Z,76.53
2022-10-02T12:01:21.536Z,75.90
2022-10-02T12:02:25.757Z,75.53
2022-10-02T12:04:02.076Z,75.34
2022-10-02T12:05:04.841Z,75.05
2022-10-02T12:06:07.608Z,75.70
2022-10-02T12:07:42.360Z,73.66
2022-10-02T12:08:45.283Z,73.73
2022-10-02T12:09:48.342Z,74.06
2022-10-02T12:11:23.082Z,74.33
2022-10-02T12:12:33.376Z,73.80
2022-10-02T12:13:36.631Z,74.84
2022-10-02T12:15:11.669Z,73.72
2022-10-02T12:16:14.956Z,73.96
2022-10-02T12:17:18.399Z,75.45
2022-10-02T12:18:53.348Z,74.99
2022-10-02T12:19:56.357Z,75.58
2022-10-02T12:20:59.302Z,75.60
2022-10-02T12:22:34.255Z,74.78
2022-10-02T12:23:37.469Z,72.56
2022-10-02T12:24:40.640Z,72.79
2022-10-02T12:26:18.805Z,69.42
2022-10-02T12:27:21.987Z,68.92
2022-10-02T12:28:25.178Z,66.34
2022-10-02T12:30:00.656Z,66.44
2022-10-02T12:31:03.652Z,66.83
2022-10-02T12:32:06.833Z,66.33
2022-10-02T12:33:41.894Z,68.04
2022-10-02T12:34:48.690Z,67.86
2022-10-02T12:35:51.777Z,68.19
2022-10-02T12:37:26.727Z,68.93
2022-10-02T12:38:29.737Z,69.66
2022-10-02T12:39:32.818Z,69.94
2022-10-02T12:41:07.982Z,67.82
2022-10-02T12:42:11.161Z,68.41
2022-10-02T12:43:14.359Z,68.93
2022-10-02T12:44:49.286Z,70.48
2022-10-02T12:45:57.996Z,71.47
2022-10-02T12:47:01.287Z,69.94
2022-10-02T12:48:36.228Z,68.85
2022-10-02T12:49:39.366Z,69.38
2022-10-02T12:50:42.444Z,67.31
2022-10-02T12:52:23.814Z,65.78
2022-10-02T12:53:26.999Z,67.20
2022-10-02T12:54:30.008Z,65.91
2022-10-02T12:56:04.882Z,65.35
2022-10-02T12:57:08.009Z,65.32
2022-10-02T12:58:10.989Z,63.18
2022-10-02T12:59:45.967Z,61.84
2022-10-02T13:00:18.066Z,64.66
2022-10-02T13:01:21.138Z,66.29
2022-10-02T13:02:42.887Z,66.42
2022-10-02T13:04:31.445Z,65.78
2022-10-02T13:05:34.488Z,65.93
2022-10-02T13:06:43.445Z,66.73
2022-10-02T13:08:18.390Z,66.85
2022-10-02T13:09:21.245Z,65.93
2022-10-02T13:10:27.795Z,66.15
2022-10-02T13:12:02.585Z,67.34
2022-10-02T13:13:05.595Z,66.49
2022-10-02T13:14:08.370Z,67.05
2022-10-02T13:15:43.493Z,68.10
2022-10-02T13:16:46.697Z,67.29
2022-10-02T13:17:55.879Z,69.59
2022-10-02T13:19:30.383Z,68.26
2022-10-02T13:20:33.223Z,68.59
2022-10-02T13:21:36.460Z,68.61
2022-10-02T13:23:11.424Z,68.30
2022-10-02T13:24:14.480Z,68.89
2022-10-02T13:25:17.465Z,69.63
2022-10-02T13:26:52.274Z,68.82
2022-10-02T13:27:55.443Z,69.44
2022-10-02T13:28:58.745Z,69.56
2022-10-02T13:30:33.669Z,70.18
2022-10-02T13:31:37.145Z,70.44
2022-10-02T13:32:40.754Z,70.50
2022-10-02T13:34:15.647Z,71.14
2022-10-02T13:35:24.418Z,71.11
2022-10-02T13:36:34.954Z,69.57
2022-10-02T13:38:09.932Z,69.43
2022-10-02T13:39:12.888Z,69.95
2022-10-02T13:40:16.166Z,69.67
2022-10-02T13:41:51.102Z,69.71
2022-10-02T13:42:54.083Z,66.40
2022-10-02T13:44:00.852Z,69.07
2022-10-02T13:45:36.126Z,67.66
2022-10-02T13:46:39.535Z,69.23
2022-10-02T13:47:42.637Z,70.02
2022-10-02T13:49:17.842Z,69.19
2022-10-02T13:50:23.569Z,68.89
2022-10-02T13:51:26.453Z,69.34
2022-10-02T13:53:02.104Z,69.26
2022-10-02T13:54:05.353Z,69.32
2022-10-02T13:55:08.369Z,67.88
2022-10-02T13:56:43.347Z,68.48
2022-10-02T13:57:46.277Z,68.75
2022-10-02T13:58:49.174Z,68.42
2022-10-02T14:00:17.536Z,66.12
2022-10-02T14:01:20.650Z,67.27
2022-10-02T14:02:24.602Z,67.47
2022-10-02T14:03:59.455Z,68.00
2022-10-02T14:05:02.856Z,68.97
2022-10-02T14:06:05.815Z,70.01
2022-10-02T14:07:40.645Z,69.91
2022-10-02T14:08:43.598Z,69.21
2022-10-02T14:09:46.634Z,69.01
2022-10-02T14:11:21.436Z,70.20
2022-10-02T14:12:25.358Z,70.52
2022-10-02T14:13:28.430Z,69.07
2022-10-02T14:15:03.104Z,69.23
2022-10-02T14:16:06.217Z,67.12
2022-10-02T14:17:09.355Z,67.42
2022-10-02T14:18:44.003Z,66.71
2022-10-02T14:19:46.804Z,65.31
2022-10-02T14:20:49.977Z,65.68
2022-10-02T14:22:25.826Z,64.94
2022-10-02T14:23:28.713Z,65.20
2022-10-02T14:24:31.523Z,65.62
2022-10-02T14:26:06.401Z,64.89
2022-10-02T14:27:09.323Z,65.05
2022-10-02T14:28:12.423Z,64.63
2022-10-02T14:29:54.534Z,64.16
2022-10-02T14:30:57.725Z,65.22
2022-10-02T14:32:00.967Z,64.77
2022-10-02T14:33:35.944Z,66.03
2022-10-02T14:34:38.793Z,66.46
2022-10-02T14:35:41.913Z,66.91
2022-10-02T14:37:16.867Z,66.30
2022-10-02T14:38:19.914Z,67.24
2022-10-02T14:39:22.585Z,67.12
2022-10-02T14:40:57.653Z,67.61
2022-10-02T14:42:00.605Z,67.45
2022-10-02T14:43:03.521Z,66.94
2022-10-02T14:44:38.576Z,66.95
2022-10-02T14:45:41.575Z,67.31
2022-10-02T14:46:44.861Z,67.89
2022-10-02T14:48:24.450Z,67.81
2022-10-02T14:49:27.415Z,68.99
2022-10-02T14:50:30.664Z,69.05
2022-10-02T14:52:05.464Z,68.54
2022-10-02T14:53:08.278Z,68.37
2022-10-02T14:54:11.121Z,67.86
2022-10-02T14:55:45.881Z,68.51
2022-10-02T14:56:49.204Z,68.85
2022-10-02T14:57:56.668Z,68.77
2022-10-02T14:59:31.660Z,68.67
2022-10-02T15:00:18.396Z,67.20
2022-10-02T15:01:21.502Z,68.33
2022-10-02T15:02:25.399Z,69.58
2022-10-02T15:04:00.338Z,69.59
2022-10-02T15:05:09.711Z,68.53
2022-10-02T15:06:13.014Z,68.50
2022-10-02T15:07:47.738Z,69.58
2022-10-02T15:08:50.770Z,69.40
2022-10-02T15:09:53.517Z,70.34
2022-10-02T15:11:28.355Z,69.68
2022-10-02T15:12:32.487Z,69.91
2022-10-02T15:13:42.389Z,69.76
2022-10-02T15:15:17.481Z,69.86
2022-10-02T15:16:20.752Z,69.86
2022-10-02T15:17:24.061Z,70.20
2022-10-02T15:18:58.901Z,68.83
2022-10-02T15:20:01.994Z,68.29
2022-10-02T15:21:05.277Z,67.95
2022-10-02T15:22:40.041Z,68.93
2022-10-02T15:23:42.882Z,68.81
2022-10-02T15:24:46.002Z,67.76
2022-10-02T15:26:21.055Z,68.21
2022-10-02T15:27:23.967Z,67.84
2022-10-02T15:28:42.729Z,67.28
2022-10-02T15:30:18.148Z,68.36
2022-10-02T15:31:21.473Z,68.59
2022-10-02T15:32:25.252Z,69.28
2022-10-02T15:34:03.143Z,68.95
2022-10-02T15:35:06.058Z,69.05
2022-10-02T15:36:09.123Z,69.49
2022-10-02T15:37:43.877Z,70.17
2022-10-02T15:38:46.856Z,69.76
2022-10-02T15:39:54.320Z,68.92
2022-10-02T15:41:33.211Z,69.94
2022-10-02T15:42:36.888Z,69.61
2022-10-02T15:43:49.337Z,69.13
2022-10-02T15:45:24.190Z,70.34
2022-10-02T15:46:27.891Z,69.53
2022-10-02T15:47:31.237Z,70.34
2022-10-02T15:49:06.000Z,70.24
2022-10-02T15:50:09.012Z,69.97
2022-10-02T15:51:11.995Z,69.31